sensor_id;sensor_type;location;lat;lon;timestamp;temperature;humidity
1301;DHT22;59099;48.806;9.160;2022-07-10T00:01:03;17.60;99.90
1301;DHT22;59099;48.806;9.160;2022-07-10T00:03:49;17.50;99.90
1301;DHT22;59099;48.806;9.160;2022-07-10T00:06:20;17.40;99.90
1301;DHT22;59099;48.806;9.160;2022-07-10T00:08:51;17.40;99.90
1301;DHT22;59099;48.806;9.160;2022-07-10T00:14:33;17.40;99.90
1301;DHT22;59099;48.806;9.160;2022-07-10T00:17:30;17.40;99.90
1301;DHT22;59099;48.806;9.160;2022-07-10T00:20:32;17.30;99.90
1301;DHT22;59099;48.806;9.160;2022-07-10T00:23:13;17.30;99.90
1301;DHT22;59099;48.806;9.160;2022-07-10T00:25:39;17.30;99.90
1301;DHT22;59099;48.806;9.160;2022-07-10T00:28:07;17.30;99.90
1301;DHT22;59099;48.806;9.160;2022-07-10T00:30:33;17.30;99.90
1301;DHT22;59099;48.806;9.160;2022-07-10T00:32:59;17.30;99.90
1301;DHT22;59099;48.806;9.160;2022-07-10T00:35:28;17.30;99.90
1301;DHT22;59099;48.806;9.160;2022-07-10T00:38:01;17.30;99.90
1301;DHT22;59099;48.806;9.160;2022-07-10T00:40:27;17.30;99.90
1301;DHT22;59099;48.806;9.160;2022-07-10T00:42:53;17.20;99.90
1301;DHT22;59099;48.806;9.160;2022-07-10T00:45:19;17.30;99.90
1301;DHT22;59099;48.806;9.160;2022-07-10T00:48:05;17.20;99.90
1301;DHT22;59099;48.806;9.160;2022-07-10T00:50:55;17.20;99.90
1301;DHT22;59099;48.806;9.160;2022-07-10T00:56:38;17.20;99.90
1301;DHT22;59099;48.806;9.160;2022-07-10T00:59:04;17.10;99.90
1301;DHT22;59099;48.806;9.160;2022-07-10T01:01:43;17.10;99.90
1301;DHT22;59099;48.806;9.160;2022-07-10T01:04:25;17.00;99.90
1301;DHT22;59099;48.806;9.160;2022-07-10T01:06:53;17.10;99.90
1301;DHT22;59099;48.806;9.160;2022-07-10T01:09:26;17.00;99.90
1301;DHT22;59099;48.806;9.160;2022-07-10T01:11:56;17.00;99.90
1301;DHT22;59099;48.806;9.160;2022-07-10T01:14:22;16.90;99.90
1301;DHT22;59099;48.806;9.160;2022-07-10T01:16:50;16.90;99.90
1301;DHT22;59099;48.806;9.160;2022-07-10T01:19:25;16.90;99.90
1301;DHT22;59099;48.806;9.160;2022-07-10T01:22:15;16.90;99.90
1301;DHT22;59099;48.806;9.160;2022-07-10T01:25:08;16.90;99.90
1301;DHT22;59099;48.806;9.160;2022-07-10T01:27:39;16.90;99.90
1301;DHT22;59099;48.806;9.160;2022-07-10T01:30:15;17.00;99.90
1301;DHT22;59099;48.806;9.160;2022-07-10T01:33:05;17.10;99.90
1301;DHT22;59099;48.806;9.160;2022-07-10T01:35:59;17.10;99.90
1301;DHT22;59099;48.806;9.160;2022-07-10T01:38:35;17.10;99.90
1301;DHT22;59099;48.806;9.160;2022-07-10T01:41:15;17.10;99.90
1301;DHT22;59099;48.806;9.160;2022-07-10T01:43:41;17.10;99.90
1301;DHT22;59099;48.806;9.160;2022-07-10T01:46:31;17.20;99.90
1301;DHT22;59099;48.806;9.160;2022-07-10T01:49:00;17.20;99.90
1301;DHT22;59099;48.806;9.160;2022-07-10T01:51:26;17.20;99.90
1301;DHT22;59099;48.806;9.160;2022-07-10T01:53:52;17.10;99.90
1301;DHT22;59099;48.806;9.160;2022-07-10T01:56:18;17.20;99.90
1301;DHT22;59099;48.806;9.160;2022-07-10T01:58:51;17.10;99.90
1301;DHT22;59099;48.806;9.160;2022-07-10T02:01:21;17.10;99.90
1301;DHT22;59099;48.806;9.160;2022-07-10T02:06:48;17.10;99.90
1301;DHT22;59099;48.806;9.160;2022-07-10T02:09:14;17.00;99.90
1301;DHT22;59099;48.806;9.160;2022-07-10T02:11:41;17.00;99.90
1301;DHT22;59099;48.806;9.160;2022-07-10T02:14:07;17.00;99.90
1301;DHT22;59099;48.806;9.160;2022-07-10T02:16:34;16.90;99.90
1301;DHT22;59099;48.806;9.160;2022-07-10T02:19:13;16.80;99.90
1301;DHT22;59099;48.806;9.160;2022-07-10T02:21:58;16.80;99.90
1301;DHT22;59099;48.806;9.160;2022-07-10T02:24:26;16.80;99.90
1301;DHT22;59099;48.806;9.160;2022-07-10T02:26:52;16.80;99.90
1301;DHT22;59099;48.806;9.160;2022-07-10T02:29:20;16.90;99.90
1301;DHT22;59099;48.806;9.160;2022-07-10T02:31:51;16.90;99.90
1301;DHT22;59099;48.806;9.160;2022-07-10T02:34:20;16.90;99.90
1301;DHT22;59099;48.806;9.160;2022-07-10T02:36:51;17.00;99.90
1301;DHT22;59099;48.806;9.160;2022-07-10T02:39:25;16.90;99.90
1301;DHT22;59099;48.806;9.160;2022-07-10T02:41:54;16.80;99.90
1301;DHT22;59099;48.806;9.160;2022-07-10T02:44:29;16.80;99.90
1301;DHT22;59099;48.806;9.160;2022-07-10T02:47:02;16.80;99.90
1301;DHT22;59099;48.806;9.160;2022-07-10T02:49:28;16.80;99.90
1301;DHT22;59099;48.806;9.160;2022-07-10T02:51:54;16.70;99.90
1301;DHT22;59099;48.806;9.160;2022-07-10T02:54:20;16.70;99.90
1301;DHT22;59099;48.806;9.160;2022-07-10T02:56:46;16.70;99.90
1301;DHT22;59099;48.806;9.160;2022-07-10T02:59:33;16.60;99.90
1301;DHT22;59099;48.806;9.160;2022-07-10T03:01:59;16.60;99.90
1301;DHT22;59099;48.806;9.160;2022-07-10T03:04:39;16.60;99.90
1301;DHT22;59099;48.806;9.160;2022-07-10T03:07:05;16.60;99.90
1301;DHT22;59099;48.806;9.160;2022-07-10T03:09:32;16.60;99.90
1301;DHT22;59099;48.806;9.160;2022-07-10T03:14:51;16.60;99.90
1301;DHT22;59099;48.806;9.160;2022-07-10T03:17:32;16.50;99.90
1301;DHT22;59099;48.806;9.160;2022-07-10T03:20:38;16.50;99.90
1301;DHT22;59099;48.806;9.160;2022-07-10T03:23:14;16.50;99.90
1301;DHT22;59099;48.806;9.160;2022-07-10T03:25:40;16.50;99.90
1301;DHT22;59099;48.806;9.160;2022-07-10T03:28:32;16.50;99.90
1301;DHT22;59099;48.806;9.160;2022-07-10T03:31:22;16.50;99.90
1301;DHT22;59099;48.806;9.160;2022-07-10T03:34:09;16.50;99.90
1301;DHT22;59099;48.806;9.160;2022-07-10T03:36:45;16.40;99.90
1301;DHT22;59099;48.806;9.160;2022-07-10T03:39:14;16.40;99.90
1301;DHT22;59099;48.806;9.160;2022-07-10T03:41:59;16.40;99.90
1301;DHT22;59099;48.806;9.160;2022-07-10T03:44:28;16.30;99.90
1301;DHT22;59099;48.806;9.160;2022-07-10T03:47:14;16.30;99.90
1301;DHT22;59099;48.806;9.160;2022-07-10T03:49:57;16.30;99.90
1301;DHT22;59099;48.806;9.160;2022-07-10T03:55:15;16.30;99.90
1301;DHT22;59099;48.806;9.160;2022-07-10T03:58:11;16.40;99.90
1301;DHT22;59099;48.806;9.160;2022-07-10T04:01:02;16.40;99.90
1301;DHT22;59099;48.806;9.160;2022-07-10T04:03:28;16.50;99.90
1301;DHT22;59099;48.806;9.160;2022-07-10T04:06:00;16.50;99.90
1301;DHT22;59099;48.806;9.160;2022-07-10T04:08:38;16.50;99.90
1301;DHT22;59099;48.806;9.160;2022-07-10T04:11:56;16.50;99.90
1301;DHT22;59099;48.806;9.160;2022-07-10T04:14:44;16.50;99.90
1301;DHT22;59099;48.806;9.160;2022-07-10T04:17:52;16.50;99.90
1301;DHT22;59099;48.806;9.160;2022-07-10T04:20:26;16.60;99.90
1301;DHT22;59099;48.806;9.160;2022-07-10T04:23:09;16.70;99.90
1301;DHT22;59099;48.806;9.160;2022-07-10T04:25:45;16.70;99.90
1301;DHT22;59099;48.806;9.160;2022-07-10T04:28:29;16.70;99.90
1301;DHT22;59099;48.806;9.160;2022-07-10T04:31:24;16.70;99.90
1301;DHT22;59099;48.806;9.160;2022-07-10T04:34:06;16.60;99.90
1301;DHT22;59099;48.806;9.160;2022-07-10T04:36:37;16.60;99.90
1301;DHT22;59099;48.806;9.160;2022-07-10T04:39:13;16.70;99.90
1301;DHT22;59099;48.806;9.160;2022-07-10T04:42:13;16.70;99.90
1301;DHT22;59099;48.806;9.160;2022-07-10T04:44:39;16.70;99.90
1301;DHT22;59099;48.806;9.160;2022-07-10T04:47:15;16.70;99.90
1301;DHT22;59099;48.806;9.160;2022-07-10T04:49:51;16.60;99.90
1301;DHT22;59099;48.806;9.160;2022-07-10T04:52:34;16.60;99.90
1301;DHT22;59099;48.806;9.160;2022-07-10T04:55:13;16.60;99.90
1301;DHT22;59099;48.806;9.160;2022-07-10T04:57:39;16.60;99.90
1301;DHT22;59099;48.806;9.160;2022-07-10T05:00:14;16.60;99.90
1301;DHT22;59099;48.806;9.160;2022-07-10T05:02:42;16.70;99.90
1301;DHT22;59099;48.806;9.160;2022-07-10T05:05:16;16.70;99.90
1301;DHT22;59099;48.806;9.160;2022-07-10T05:07:45;16.80;99.90
1301;DHT22;59099;48.806;9.160;2022-07-10T05:10:19;16.80;99.90
1301;DHT22;59099;48.806;9.160;2022-07-10T05:12:48;16.90;99.90
1301;DHT22;59099;48.806;9.160;2022-07-10T05:15:14;16.90;99.90
1301;DHT22;59099;48.806;9.160;2022-07-10T05:17:42;16.90;99.90
1301;DHT22;59099;48.806;9.160;2022-07-10T05:20:18;16.90;99.90
1301;DHT22;59099;48.806;9.160;2022-07-10T05:22:52;16.90;99.90
1301;DHT22;59099;48.806;9.160;2022-07-10T05:25:18;16.80;99.90
1301;DHT22;59099;48.806;9.160;2022-07-10T05:27:56;16.90;99.90
1301;DHT22;59099;48.806;9.160;2022-07-10T05:30:37;17.10;99.90
1301;DHT22;59099;48.806;9.160;2022-07-10T05:33:40;17.20;99.90
1301;DHT22;59099;48.806;9.160;2022-07-10T05:36:21;17.20;99.90
1301;DHT22;59099;48.806;9.160;2022-07-10T05:39:03;17.20;99.90
1301;DHT22;59099;48.806;9.160;2022-07-10T05:41:47;17.20;99.90
1301;DHT22;59099;48.806;9.160;2022-07-10T05:45:04;17.10;99.90
1301;DHT22;59099;48.806;9.160;2022-07-10T05:47:50;17.10;99.90
1301;DHT22;59099;48.806;9.160;2022-07-10T05:50:54;17.20;99.90
1301;DHT22;59099;48.806;9.160;2022-07-10T05:53:30;17.40;99.90
1301;DHT22;59099;48.806;9.160;2022-07-10T05:56:00;17.60;99.90
1301;DHT22;59099;48.806;9.160;2022-07-10T05:58:26;17.70;99.90
1301;DHT22;59099;48.806;9.160;2022-07-10T06:00:52;17.70;99.90
1301;DHT22;59099;48.806;9.160;2022-07-10T06:03:18;17.80;99.90
1301;DHT22;59099;48.806;9.160;2022-07-10T06:05:44;17.90;99.90
1301;DHT22;59099;48.806;9.160;2022-07-10T06:08:11;18.00;99.90
1301;DHT22;59099;48.806;9.160;2022-07-10T06:10:37;17.80;99.90
1301;DHT22;59099;48.806;9.160;2022-07-10T06:13:05;17.70;99.90
1301;DHT22;59099;48.806;9.160;2022-07-10T06:15:30;17.70;99.90
1301;DHT22;59099;48.806;9.160;2022-07-10T06:17:57;17.80;99.90
1301;DHT22;59099;48.806;9.160;2022-07-10T06:20:27;17.70;99.90
1301;DHT22;59099;48.806;9.160;2022-07-10T06:22:53;17.70;99.90
1301;DHT22;59099;48.806;9.160;2022-07-10T06:25:19;17.70;99.90
1301;DHT22;59099;48.806;9.160;2022-07-10T06:27:45;17.90;99.90
1301;DHT22;59099;48.806;9.160;2022-07-10T06:30:11;17.90;99.90
1301;DHT22;59099;48.806;9.160;2022-07-10T06:32:37;17.90;99.90
1301;DHT22;59099;48.806;9.160;2022-07-10T06:35:03;17.80;99.90
1301;DHT22;59099;48.806;9.160;2022-07-10T06:37:30;17.70;99.90
1301;DHT22;59099;48.806;9.160;2022-07-10T06:39:56;17.80;99.90
1301;DHT22;59099;48.806;9.160;2022-07-10T06:42:22;17.90;99.90
1301;DHT22;59099;48.806;9.160;2022-07-10T06:44:50;18.00;99.90
1301;DHT22;59099;48.806;9.160;2022-07-10T06:47:18;18.20;99.90
1301;DHT22;59099;48.806;9.160;2022-07-10T06:50:04;18.30;99.90
1301;DHT22;59099;48.806;9.160;2022-07-10T06:52:35;18.30;99.90
1301;DHT22;59099;48.806;9.160;2022-07-10T06:55:01;18.30;99.90
1301;DHT22;59099;48.806;9.160;2022-07-10T06:57:28;18.40;99.90
1301;DHT22;59099;48.806;9.160;2022-07-10T06:59:54;18.40;99.90
1301;DHT22;59099;48.806;9.160;2022-07-10T07:02:20;18.20;99.90
1301;DHT22;59099;48.806;9.160;2022-07-10T07:04:46;18.10;99.90
1301;DHT22;59099;48.806;9.160;2022-07-10T07:07:12;18.10;99.90
1301;DHT22;59099;48.806;9.160;2022-07-10T07:09:39;18.20;99.90
1301;DHT22;59099;48.806;9.160;2022-07-10T07:12:05;18.30;99.90
1301;DHT22;59099;48.806;9.160;2022-07-10T07:14:32;18.40;99.90
1301;DHT22;59099;48.806;9.160;2022-07-10T07:16:57;18.40;99.90
1301;DHT22;59099;48.806;9.160;2022-07-10T07:19:26;18.30;99.90
1301;DHT22;59099;48.806;9.160;2022-07-10T07:22:00;18.30;99.90
1301;DHT22;59099;48.806;9.160;2022-07-10T07:24:45;18.40;99.90
1301;DHT22;59099;48.806;9.160;2022-07-10T07:27:11;18.60;99.90
1301;DHT22;59099;48.806;9.160;2022-07-10T07:29:38;18.70;99.90
1301;DHT22;59099;48.806;9.160;2022-07-10T07:32:04;18.80;99.90
1301;DHT22;59099;48.806;9.160;2022-07-10T07:34:30;18.90;99.90
1301;DHT22;59099;48.806;9.160;2022-07-10T07:36:57;18.80;99.90
1301;DHT22;59099;48.806;9.160;2022-07-10T07:39:23;18.90;99.90
1301;DHT22;59099;48.806;9.160;2022-07-10T07:41:50;18.90;99.90
1301;DHT22;59099;48.806;9.160;2022-07-10T07:44:16;18.90;99.90
1301;DHT22;59099;48.806;9.160;2022-07-10T07:46:43;18.90;99.90
1301;DHT22;59099;48.806;9.160;2022-07-10T07:49:09;18.90;99.90
1301;DHT22;59099;48.806;9.160;2022-07-10T07:51:35;19.10;99.90
1301;DHT22;59099;48.806;9.160;2022-07-10T07:54:01;19.30;99.90
1301;DHT22;59099;48.806;9.160;2022-07-10T07:56:27;19.40;99.90
1301;DHT22;59099;48.806;9.160;2022-07-10T07:58:52;19.30;99.90
1301;DHT22;59099;48.806;9.160;2022-07-10T08:01:18;19.30;99.90
1301;DHT22;59099;48.806;9.160;2022-07-10T08:03:45;19.40;99.90
1301;DHT22;59099;48.806;9.160;2022-07-10T08:06:11;19.50;99.90
1301;DHT22;59099;48.806;9.160;2022-07-10T08:08:37;19.60;99.90
1301;DHT22;59099;48.806;9.160;2022-07-10T08:11:03;19.30;99.90
1301;DHT22;59099;48.806;9.160;2022-07-10T08:13:29;19.10;99.90
1301;DHT22;59099;48.806;9.160;2022-07-10T08:15:54;19.10;99.90
1301;DHT22;59099;48.806;9.160;2022-07-10T08:18:21;19.20;99.90
1301;DHT22;59099;48.806;9.160;2022-07-10T08:20:46;19.40;99.90
1301;DHT22;59099;48.806;9.160;2022-07-10T08:23:12;19.50;99.90
1301;DHT22;59099;48.806;9.160;2022-07-10T08:25:38;19.60;99.90
1301;DHT22;59099;48.806;9.160;2022-07-10T08:28:04;19.80;99.90
1301;DHT22;59099;48.806;9.160;2022-07-10T08:30:35;19.90;99.90
1301;DHT22;59099;48.806;9.160;2022-07-10T08:33:01;20.10;99.90
1301;DHT22;59099;48.806;9.160;2022-07-10T08:35:27;20.20;99.90
1301;DHT22;59099;48.806;9.160;2022-07-10T08:37:53;20.00;99.90
1301;DHT22;59099;48.806;9.160;2022-07-10T08:40:21;19.90;99.90
1301;DHT22;59099;48.806;9.160;2022-07-10T08:42:47;19.90;99.90
1301;DHT22;59099;48.806;9.160;2022-07-10T08:45:14;19.80;99.90
1301;DHT22;59099;48.806;9.160;2022-07-10T08:47:41;19.80;99.90
1301;DHT22;59099;48.806;9.160;2022-07-10T08:50:17;20.10;99.90
1301;DHT22;59099;48.806;9.160;2022-07-10T08:52:47;20.50;99.90
1301;DHT22;59099;48.806;9.160;2022-07-10T08:55:24;20.20;99.90
1301;DHT22;59099;48.806;9.160;2022-07-10T08:57:50;20.00;99.90
1301;DHT22;59099;48.806;9.160;2022-07-10T09:00:16;19.90;99.90
1301;DHT22;59099;48.806;9.160;2022-07-10T09:02:42;20.00;99.90
1301;DHT22;59099;48.806;9.160;2022-07-10T09:05:08;20.30;99.90
1301;DHT22;59099;48.806;9.160;2022-07-10T09:07:35;20.50;99.90
1301;DHT22;59099;48.806;9.160;2022-07-10T09:10:06;20.80;99.90
1301;DHT22;59099;48.806;9.160;2022-07-10T09:12:52;21.00;99.90
1301;DHT22;59099;48.806;9.160;2022-07-10T09:15:20;21.00;99.90
1301;DHT22;59099;48.806;9.160;2022-07-10T09:20:28;21.10;99.90
1301;DHT22;59099;48.806;9.160;2022-07-10T09:22:59;21.20;99.90
1301;DHT22;59099;48.806;9.160;2022-07-10T09:25:34;21.30;99.90
1301;DHT22;59099;48.806;9.160;2022-07-10T09:28:00;21.40;99.90
1301;DHT22;59099;48.806;9.160;2022-07-10T09:30:36;21.40;99.80
1301;DHT22;59099;48.806;9.160;2022-07-10T09:33:23;21.50;99.90
1301;DHT22;59099;48.806;9.160;2022-07-10T09:35:58;21.50;98.30
1301;DHT22;59099;48.806;9.160;2022-07-10T09:41:23;21.50;97.70
1301;DHT22;59099;48.806;9.160;2022-07-10T09:43:59;21.60;96.40
1301;DHT22;59099;48.806;9.160;2022-07-10T09:46:34;21.50;94.90
1301;DHT22;59099;48.806;9.160;2022-07-10T09:49:09;21.50;96.40
1301;DHT22;59099;48.806;9.160;2022-07-10T09:51:40;21.70;99.90
1301;DHT22;59099;48.806;9.160;2022-07-10T09:54:08;21.80;95.70
1301;DHT22;59099;48.806;9.160;2022-07-10T09:56:46;21.90;96.00
1301;DHT22;59099;48.806;9.160;2022-07-10T09:59:15;21.90;97.10
1301;DHT22;59099;48.806;9.160;2022-07-10T10:01:49;22.20;94.60
1301;DHT22;59099;48.806;9.160;2022-07-10T10:04:17;22.40;95.60
1301;DHT22;59099;48.806;9.160;2022-07-10T10:06:47;22.30;93.50
1301;DHT22;59099;48.806;9.160;2022-07-10T10:12:27;21.60;94.90
1301;DHT22;59099;48.806;9.160;2022-07-10T10:14:55;21.90;95.50
1301;DHT22;59099;48.806;9.160;2022-07-10T10:17:26;22.20;93.80
1301;DHT22;59099;48.806;9.160;2022-07-10T10:19:54;22.50;95.90
1301;DHT22;59099;48.806;9.160;2022-07-10T10:22:44;22.40;91.90
1301;DHT22;59099;48.806;9.160;2022-07-10T10:25:12;21.90;91.40
1301;DHT22;59099;48.806;9.160;2022-07-10T10:27:39;21.70;92.00
1301;DHT22;59099;48.806;9.160;2022-07-10T10:30:06;21.60;91.60
1301;DHT22;59099;48.806;9.160;2022-07-10T10:32:32;21.40;92.30
1301;DHT22;59099;48.806;9.160;2022-07-10T10:34:58;21.60;97.60
1301;DHT22;59099;48.806;9.160;2022-07-10T10:37:33;22.00;94.50
1301;DHT22;59099;48.806;9.160;2022-07-10T10:40:02;22.20;91.00
1301;DHT22;59099;48.806;9.160;2022-07-10T10:45:23;21.80;94.20
1301;DHT22;59099;48.806;9.160;2022-07-10T10:48:08;22.00;94.80
1301;DHT22;59099;48.806;9.160;2022-07-10T10:50:49;22.70;95.00
1301;DHT22;59099;48.806;9.160;2022-07-10T10:58:43;25.70;81.20
1301;DHT22;59099;48.806;9.160;2022-07-10T11:09:33;27.90;78.90
1301;DHT22;59099;48.806;9.160;2022-07-10T11:12:09;28.70;68.70
1301;DHT22;59099;48.806;9.160;2022-07-10T11:14:38;29.70;68.10
1301;DHT22;59099;48.806;9.160;2022-07-10T11:17:06;29.20;60.20
1301;DHT22;59099;48.806;9.160;2022-07-10T11:19:32;27.60;61.90
1301;DHT22;59099;48.806;9.160;2022-07-10T11:22:03;26.40;65.90
1301;DHT22;59099;48.806;9.160;2022-07-10T11:24:40;26.40;75.00
1301;DHT22;59099;48.806;9.160;2022-07-10T11:30:01;25.60;68.70
1301;DHT22;59099;48.806;9.160;2022-07-10T11:32:28;25.90;70.30
1301;DHT22;59099;48.806;9.160;2022-07-10T11:34:55;27.00;62.90
1301;DHT22;59099;48.806;9.160;2022-07-10T11:37:20;29.00;67.80
1301;DHT22;59099;48.806;9.160;2022-07-10T11:39:47;30.60;57.60
1301;DHT22;59099;48.806;9.160;2022-07-10T11:42:13;29.60;57.40
1301;DHT22;59099;48.806;9.160;2022-07-10T11:44:39;29.40;58.70
1301;DHT22;59099;48.806;9.160;2022-07-10T11:47:05;29.20;56.60
1301;DHT22;59099;48.806;9.160;2022-07-10T11:49:33;29.80;58.40
1301;DHT22;59099;48.806;9.160;2022-07-10T11:52:03;30.90;56.80
1301;DHT22;59099;48.806;9.160;2022-07-10T11:54:29;32.30;55.60
1301;DHT22;59099;48.806;9.160;2022-07-10T11:57:05;33.40;52.20
1301;DHT22;59099;48.806;9.160;2022-07-10T11:59:32;32.30;50.90
1301;DHT22;59099;48.806;9.160;2022-07-10T12:01:58;30.60;52.20
1301;DHT22;59099;48.806;9.160;2022-07-10T12:04:24;29.70;54.40
1301;DHT22;59099;48.806;9.160;2022-07-10T12:06:52;30.10;53.70
1301;DHT22;59099;48.806;9.160;2022-07-10T12:09:20;30.20;51.60
1301;DHT22;59099;48.806;9.160;2022-07-10T12:12:06;28.40;51.90
1301;DHT22;59099;48.806;9.160;2022-07-10T12:14:35;28.30;56.00
1301;DHT22;59099;48.806;9.160;2022-07-10T12:17:01;29.30;52.80
1301;DHT22;59099;48.806;9.160;2022-07-10T12:19:39;30.40;51.50
1301;DHT22;59099;48.806;9.160;2022-07-10T12:22:05;31.40;54.80
1301;DHT22;59099;48.806;9.160;2022-07-10T12:24:32;32.30;54.10
1301;DHT22;59099;48.806;9.160;2022-07-10T12:26:58;32.00;50.00
1301;DHT22;59099;48.806;9.160;2022-07-10T12:29:26;31.70;47.30
1301;DHT22;59099;48.806;9.160;2022-07-10T12:31:53;31.00;47.10
1301;DHT22;59099;48.806;9.160;2022-07-10T12:34:36;30.70;56.30
1301;DHT22;59099;48.806;9.160;2022-07-10T12:37:12;29.90;54.00
1301;DHT22;59099;48.806;9.160;2022-07-10T12:39:50;30.20;51.60
1301;DHT22;59099;48.806;9.160;2022-07-10T12:42:31;30.20;53.40
1301;DHT22;59099;48.806;9.160;2022-07-10T12:45:10;29.40;49.60
1301;DHT22;59099;48.806;9.160;2022-07-10T12:47:49;28.80;53.50
1301;DHT22;59099;48.806;9.160;2022-07-10T12:50:17;29.70;56.20
1301;DHT22;59099;48.806;9.160;2022-07-10T12:52:46;30.90;55.40
1301;DHT22;59099;48.806;9.160;2022-07-10T12:55:19;31.20;47.70
1301;DHT22;59099;48.806;9.160;2022-07-10T12:58:04;31.40;49.30
1301;DHT22;59099;48.806;9.160;2022-07-10T13:00:35;32.60;45.90
1301;DHT22;59099;48.806;9.160;2022-07-10T13:03:09;33.10;46.70
1301;DHT22;59099;48.806;9.160;2022-07-10T13:08:10;34.70;48.90
1301;DHT22;59099;48.806;9.160;2022-07-10T13:10:43;35.60;45.20
1301;DHT22;59099;48.806;9.160;2022-07-10T13:13:12;36.20;44.60
1301;DHT22;59099;48.806;9.160;2022-07-10T13:15:38;35.30;44.40
1301;DHT22;59099;48.806;9.160;2022-07-10T13:18:15;34.50;46.00
1301;DHT22;59099;48.806;9.160;2022-07-10T13:20:43;35.90;45.40
1301;DHT22;59099;48.806;9.160;2022-07-10T13:23:09;35.50;44.30
1301;DHT22;59099;48.806;9.160;2022-07-10T13:25:37;36.10;41.80
1301;DHT22;59099;48.806;9.160;2022-07-10T13:28:08;36.80;43.20
1301;DHT22;59099;48.806;9.160;2022-07-10T13:30:35;36.20;42.10
1301;DHT22;59099;48.806;9.160;2022-07-10T13:33:01;35.90;43.10
1301;DHT22;59099;48.806;9.160;2022-07-10T13:35:31;37.00;44.50
1301;DHT22;59099;48.806;9.160;2022-07-10T13:37:59;38.10;40.40
1301;DHT22;59099;48.806;9.160;2022-07-10T13:40:26;38.20;41.20
1301;DHT22;59099;48.806;9.160;2022-07-10T13:42:52;38.10;40.70
1301;DHT22;59099;48.806;9.160;2022-07-10T13:45:19;38.50;40.60
1301;DHT22;59099;48.806;9.160;2022-07-10T13:47:45;37.10;41.50
1301;DHT22;59099;48.806;9.160;2022-07-10T13:50:11;37.50;41.30
1301;DHT22;59099;48.806;9.160;2022-07-10T13:52:37;38.20;42.50
1301;DHT22;59099;48.806;9.160;2022-07-10T13:55:03;36.80;42.20
1301;DHT22;59099;48.806;9.160;2022-07-10T13:57:31;35.20;44.30
1301;DHT22;59099;48.806;9.160;2022-07-10T13:59:56;33.20;43.80
1301;DHT22;59099;48.806;9.160;2022-07-10T14:02:22;32.00;45.50
1301;DHT22;59099;48.806;9.160;2022-07-10T14:04:48;32.30;45.80
1301;DHT22;59099;48.806;9.160;2022-07-10T14:07:14;33.80;46.90
1301;DHT22;59099;48.806;9.160;2022-07-10T14:09:40;35.40;43.30
1301;DHT22;59099;48.806;9.160;2022-07-10T14:12:06;35.00;43.40
1301;DHT22;59099;48.806;9.160;2022-07-10T14:14:32;34.20;44.70
1301;DHT22;59099;48.806;9.160;2022-07-10T14:16:58;34.70;44.00
1301;DHT22;59099;48.806;9.160;2022-07-10T14:19:24;35.30;45.30
1301;DHT22;59099;48.806;9.160;2022-07-10T14:21:50;35.40;42.20
1301;DHT22;59099;48.806;9.160;2022-07-10T14:24:15;34.40;46.10
1301;DHT22;59099;48.806;9.160;2022-07-10T14:26:41;33.40;44.10
1301;DHT22;59099;48.806;9.160;2022-07-10T14:29:07;33.70;44.20
1301;DHT22;59099;48.806;9.160;2022-07-10T14:31:33;34.50;50.20
1301;DHT22;59099;48.806;9.160;2022-07-10T14:34:00;34.90;42.90
1301;DHT22;59099;48.806;9.160;2022-07-10T14:36:26;34.00;42.60
1301;DHT22;59099;48.806;9.160;2022-07-10T14:38:55;32.80;44.50
1301;DHT22;59099;48.806;9.160;2022-07-10T14:41:23;31.70;45.50
1301;DHT22;59099;48.806;9.160;2022-07-10T14:43:50;31.80;46.50
1301;DHT22;59099;48.806;9.160;2022-07-10T14:46:16;32.50;50.10
1301;DHT22;59099;48.806;9.160;2022-07-10T14:48:42;32.90;45.00
1301;DHT22;59099;48.806;9.160;2022-07-10T14:51:08;32.60;44.80
1301;DHT22;59099;48.806;9.160;2022-07-10T14:53:35;32.90;46.10
1301;DHT22;59099;48.806;9.160;2022-07-10T14:56:05;33.50;44.70
1301;DHT22;59099;48.806;9.160;2022-07-10T14:58:32;34.30;45.00
1301;DHT22;59099;48.806;9.160;2022-07-10T15:00:58;35.50;43.40
1301;DHT22;59099;48.806;9.160;2022-07-10T15:03:24;35.00;44.40
1301;DHT22;59099;48.806;9.160;2022-07-10T15:05:50;35.40;43.10
1301;DHT22;59099;48.806;9.160;2022-07-10T15:08:24;35.50;42.20
1301;DHT22;59099;48.806;9.160;2022-07-10T15:10:51;35.50;47.00
1301;DHT22;59099;48.806;9.160;2022-07-10T15:13:17;35.20;45.70
1301;DHT22;59099;48.806;9.160;2022-07-10T15:15:43;35.00;43.40
1301;DHT22;59099;48.806;9.160;2022-07-10T15:18:09;35.30;49.30
1301;DHT22;59099;48.806;9.160;2022-07-10T15:20:35;36.00;41.50
1301;DHT22;59099;48.806;9.160;2022-07-10T15:23:03;36.50;42.60
1301;DHT22;59099;48.806;9.160;2022-07-10T15:25:29;35.40;40.60
1301;DHT22;59099;48.806;9.160;2022-07-10T15:27:55;34.80;42.40
1301;DHT22;59099;48.806;9.160;2022-07-10T15:30:21;34.30;40.90
1301;DHT22;59099;48.806;9.160;2022-07-10T15:32:47;33.40;43.20
1301;DHT22;59099;48.806;9.160;2022-07-10T15:35:14;33.20;44.40
1301;DHT22;59099;48.806;9.160;2022-07-10T15:37:40;32.50;44.70
1301;DHT22;59099;48.806;9.160;2022-07-10T15:40:06;31.90;45.30
1301;DHT22;59099;48.806;9.160;2022-07-10T15:42:33;32.90;46.20
1301;DHT22;59099;48.806;9.160;2022-07-10T15:44:59;32.80;47.60
1301;DHT22;59099;48.806;9.160;2022-07-10T15:47:25;33.10;43.90
1301;DHT22;59099;48.806;9.160;2022-07-10T15:49:51;32.20;43.20
1301;DHT22;59099;48.806;9.160;2022-07-10T15:52:17;32.90;43.60
1301;DHT22;59099;48.806;9.160;2022-07-10T15:54:43;33.60;43.00
1301;DHT22;59099;48.806;9.160;2022-07-10T15:57:10;34.20;42.50
1301;DHT22;59099;48.806;9.160;2022-07-10T15:59:37;34.90;47.50
1301;DHT22;59099;48.806;9.160;2022-07-10T16:02:03;34.50;43.40
1301;DHT22;59099;48.806;9.160;2022-07-10T16:04:29;35.00;42.20
1301;DHT22;59099;48.806;9.160;2022-07-10T16:06:55;35.20;44.60
1301;DHT22;59099;48.806;9.160;2022-07-10T16:09:21;35.80;44.30
1301;DHT22;59099;48.806;9.160;2022-07-10T16:11:47;35.80;40.80
1301;DHT22;59099;48.806;9.160;2022-07-10T16:14:13;35.40;42.90
1301;DHT22;59099;48.806;9.160;2022-07-10T16:16:39;35.50;42.40
1301;DHT22;59099;48.806;9.160;2022-07-10T16:19:06;35.60;41.00
1301;DHT22;59099;48.806;9.160;2022-07-10T16:21:33;35.50;46.70
1301;DHT22;59099;48.806;9.160;2022-07-10T16:24:04;35.10;44.00
1301;DHT22;59099;48.806;9.160;2022-07-10T16:26:30;34.80;42.60
1301;DHT22;59099;48.806;9.160;2022-07-10T16:28:58;34.80;41.80
1301;DHT22;59099;48.806;9.160;2022-07-10T16:31:24;34.20;43.30
1301;DHT22;59099;48.806;9.160;2022-07-10T16:33:50;33.70;46.20
1301;DHT22;59099;48.806;9.160;2022-07-10T16:36:31;32.90;42.20
1301;DHT22;59099;48.806;9.160;2022-07-10T16:38:57;33.20;45.50
1301;DHT22;59099;48.806;9.160;2022-07-10T16:41:23;33.10;45.40
1301;DHT22;59099;48.806;9.160;2022-07-10T16:43:49;32.50;43.20
1301;DHT22;59099;48.806;9.160;2022-07-10T16:46:16;32.30;47.90
1301;DHT22;59099;48.806;9.160;2022-07-10T16:48:41;32.80;44.40
1301;DHT22;59099;48.806;9.160;2022-07-10T16:51:07;32.60;43.30
1301;DHT22;59099;48.806;9.160;2022-07-10T16:53:33;31.50;45.80
1301;DHT22;59099;48.806;9.160;2022-07-10T16:55:59;30.30;48.20